Time;durP1;ratioP1;P1;durP2;ratioP2;P2;SDS_P1;SDS_P2;PMS_P1;PMS_P2;Temp;Humidity;BMP_temperature;BMP_pressure;BME280_temperature;BME280_humidity;BME280_pressure;Samples;Min_cycle;Max_cycle;Signal;HPM_P1;HPM_P2
2022/10/28 06:47:34;;;;;;;13.88;6.32;;;;;;;13.56;84.92;100493.66;1086781;54;19951;-82
2022/10/28 06:48:44;;;;;;;21.17;6.53;;;;;;;13.69;84.24;100491.44;1086929;54;20037;-83
2022/10/28 06:49:58;;;;;;;26.77;6.65;;;;;;;13.79;84.02;100491.34;1086949;54;20041;-82
2022/10/28 06:51:03;;;;;;;13.10;6.28;;;;;;;13.85;83.43;100492.56;1087500;31;20574;-82
2022/10/28 06:52:16;;;;;;;10.88;5.70;;;;;;;13.96;83.33;100494.19;1086673;54;20050;-81
2022/10/28 06:53:18;;;;;;;16.33;5.80;;;;;;;13.95;83.13;100493.31;1086874;54;20039;-83
2022/10/28 06:54:26;;;;;;;28.15;7.93;;;;;;;13.97;83.16;100499.38;1086919;54;20046;-82
2022/10/28 06:55:29;;;;;;;19.40;6.25;;;;;;;14.03;82.83;100504.13;1086518;54;20046;-81
2022/10/28 06:56:33;;;;;;;20.45;6.75;;;;;;;14.07;83.04;100507.38;1086849;36;21948;-83
2022/10/28 06:57:57;;;;;;;14.43;5.57;;;;;;;14.06;82.44;100503.00;1086692;54;20043;-80
2022/10/28 06:59:09;;;;;;;17.95;6.57;;;;;;;14.03;82.44;100503.31;1086800;54;20043;-82
2022/10/28 07:00:15;;;;;;;15.60;5.90;;;;;;;14.02;82.76;100505.16;1086616;54;20042;-82
2022/10/28 07:01:17;;;;;;;12.43;5.50;;;;;;;14.09;82.81;100507.22;1086641;54;20682;-81
2022/10/28 07:02:24;;;;;;;12.82;6.20;;;;;;;14.08;82.14;100505.53;1086616;54;20039;-83
2022/10/28 07:03:28;;;;;;;12.48;5.47;;;;;;;14.12;82.37;100509.59;1086639;54;20038;-83
2022/10/28 07:04:30;;;;;;;11.95;5.97;;;;;;;14.15;82.21;100504.75;1087132;54;20047;-82
2022/10/28 07:05:34;;;;;;;12.57;5.22;;;;;;;14.22;81.93;100506.78;1086900;54;20042;-79
2022/10/28 07:06:40;;;;;;;12.63;5.57;;;;;;;14.24;81.89;100515.56;1087179;54;20650;-80
2022/10/28 07:07:44;;;;;;;9.10;5.40;;;;;;;14.30;81.70;100507.72;1087340;54;20050;-82
2022/10/28 07:08:46;;;;;;;8.40;4.85;;;;;;;14.35;81.68;100518.00;1086913;54;20046;-82
2022/10/28 07:09:51;;;;;;;8.90;5.00;;;;;;;14.38;81.52;100514.97;1087110;54;20038;-84
2022/10/28 07:10:55;;;;;;;16.63;5.90;;;;;;;14.32;81.77;100518.28;1086999;54;20068;-81
2022/10/28 07:11:59;;;;;;;29.38;6.97;;;;;;;14.32;81.74;100523.69;1088235;39;20521;-82
2022/10/28 07:13:01;;;;;;;40.13;8.63;;;;;;;14.36;81.48;100525.03;1087352;39;20436;-82
2022/10/28 07:14:05;;;;;;;32.05;7.00;;;;;;;14.40;81.37;100526.41;1086512;54;20034;-83
2022/10/28 07:15:12;;;;;;;16.77;6.20;;;;;;;14.49;81.03;100525.47;1085211;54;20038;-82
2022/10/28 07:16:16;;;;;;;17.08;6.65;;;;;;;14.56;80.96;100530.19;1084898;54;20054;-79
2022/10/28 07:17:18;;;;;;;29.20;7.97;;;;;;;14.55;80.82;100528.53;1084302;54;20046;-79
2022/10/28 07:18:27;;;;;;;18.15;6.28;;;;;;;14.64;80.23;100532.97;1084044;54;20042;-79
2022/10/28 07:19:28;;;;;;;12.18;5.70;;;;;;;14.70;79.92;100524.28;1084088;54;20049;-78
2022/10/28 07:20:33;;;;;;;15.73;5.28;;;;;;;14.73;79.87;100526.66;1084729;46;20165;-78
2022/10/28 07:21:35;;;;;;;12.43;5.07;;;;;;;14.69;80.03;100521.75;1084090;46;20046;-76
2022/10/28 07:22:44;;;;;;;16.20;5.65;;;;;;;14.72;79.58;100522.28;1084107;54;20039;-77
2022/10/28 07:23:49;;;;;;;18.83;5.75;;;;;;;14.68;79.74;100517.38;1083819;54;20129;-78
2022/10/28 07:24:50;;;;;;;14.88;5.45;;;;;;;14.70;79.65;100520.72;1089143;39;20604;-83
2022/10/28 07:25:55;;;;;;;20.60;6.15;;;;;;;14.63;80.00;100525.88;1087251;54;20599;-82
2022/10/28 07:27:00;;;;;;;12.43;5.45;;;;;;;14.71;79.48;100523.28;1085003;54;20049;-80
2022/10/28 07:28:11;;;;;;;12.68;5.85;;;;;;;14.68;78.70;100526.28;1086282;54;20173;-80
2022/10/28 07:29:18;;;;;;;15.68;6.03;;;;;;;14.59;79.26;100525.38;1088249;54;20041;-80
2022/10/28 07:30:20;;;;;;;11.40;5.40;;;;;;;14.63;79.54;100528.59;1087750;54;20018;-81
2022/10/28 07:31:30;;;;;;;10.13;5.28;;;;;;;14.58;79.08;100531.75;1088070;54;20033;-78
2022/10/28 07:32:33;;;;;;;12.27;6.55;;;;;;;14.57;79.42;100531.88;1092647;31;20492;-81
2022/10/28 07:33:44;;;;;;;12.25;4.95;;;;;;;14.55;79.17;100540.13;1088089;54;20041;-81
2022/10/28 07:34:47;;;;;;;8.43;5.40;;;;;;;14.59;79.26;100529.88;1087401;54;20105;-80
2022/10/28 07:35:51;;;;;;;13.20;5.03;;;;;;;14.62;79.47;100534.97;1086058;46;20034;-82
2022/10/28 07:36:57;;;;;;;11.95;5.35;;;;;;;14.63;79.15;100534.78;1087774;47;20949;-80
2022/10/28 07:37:59;;;;;;;13.13;5.80;;;;;;;14.65;79.44;100523.84;1091392;46;20039;-79
2022/10/28 07:39:12;;;;;;;12.93;6.60;;;;;;;14.68;78.89;100533.50;1087133;54;20039;-81
2022/10/28 07:40:14;;;;;;;11.27;6.43;;;;;;;14.74;79.09;100531.00;1086188;54;20031;-78
2022/10/28 07:41:22;;;;;;;10.85;4.95;;;;;;;14.78;78.62;100534.25;1085819;54;20054;-79
2022/10/28 07:42:25;;;;;;;10.40;5.75;;;;;;;14.80;78.71;100533.06;1084866;54;20061;-79
2022/10/28 07:43:30;;;;;;;10.57;5.00;;;;;;;14.79;78.59;100531.38;1083921;54;20607;-77
2022/10/28 07:44:32;;;;;;;13.45;5.70;;;;;;;14.80;78.67;100524.13;1085819;54;20065;-77
2022/10/28 07:45:37;;;;;;;10.05;4.97;;;;;;;14.84;78.72;100538.13;1084476;54;20030;-79
2022/10/28 07:46:39;;;;;;;11.13;5.05;;;;;;;14.89;78.64;100538.50;1084032;54;20050;-78
2022/10/28 07:47:44;;;;;;;14.57;5.57;;;;;;;14.91;78.59;100539.19;1084426;54;20045;-79
2022/10/28 07:48:51;;;;;;;10.07;5.13;;;;;;;14.95;78.17;100540.53;1085435;31;20520;-81
2022/10/28 07:49:53;;;;;;;10.82;4.95;;;;;;;15.02;78.19;100541.56;1086083;54;20042;-75
2022/10/28 07:50:57;;;;;;;15.20;4.93;;;;;;;15.03;77.92;100537.88;1087879;39;20558;-81
2022/10/28 07:51:59;;;;;;;12.70;4.82;;;;;;;14.98;78.10;100545.59;1085673;54;20038;-80
2022/10/28 07:53:04;;;;;;;14.73;5.85;;;;;;;15.06;78.13;100539.41;1085360;54;20057;-81
2022/10/28 07:54:06;;;;;;;10.40;4.60;;;;;;;15.08;77.77;100545.47;1085791;54;20042;-80
2022/10/28 07:55:11;;;;;;;8.13;4.93;;;;;;;15.17;77.70;100549.88;1085507;54;20061;-80
2022/10/28 08:12:42;;;;;;;10.05;5.35;;;;;;;15.39;76.73;100555.66;1086382;54;20030;-81
2022/10/28 08:13:48;;;;;;;11.90;6.05;;;;;;;15.41;77.13;100559.88;1086718;54;20058;-78
2022/10/28 08:14:52;;;;;;;9.90;4.78;;;;;;;15.51;76.75;100566.97;1086938;54;20030;-80
2022/10/28 08:15:58;;;;;;;12.07;5.20;;;;;;;15.54;76.54;100567.50;1089695;46;20030;-80
2022/10/28 08:17:03;;;;;;;12.05;4.97;;;;;;;15.65;76.16;100560.97;1086350;54;20034;-78
2022/10/28 08:18:07;;;;;;;11.57;5.55;;;;;;;15.68;76.33;100560.63;1086103;46;20046;-79
2022/10/28 08:19:16;;;;;;;9.85;5.72;;;;;;;15.69;75.88;100556.91;1085267;54;20039;-81
2022/10/28 08:20:18;;;;;;;11.85;5.70;;;;;;;15.73;75.87;100560.97;1086571;54;20043;-84
2022/10/28 08:21:25;;;;;;;12.48;5.85;;;;;;;15.72;76.11;100570.06;1088652;54;20042;-83
2022/10/28 08:42:40;;;;;;;15.93;7.00;;;;;;;15.54;75.62;100528.94;1086714;54;20038;-80
2022/10/28 08:44:09;;;;;;;21.20;6.82;;;;;;;15.54;75.68;100507.38;1087534;54;20038;-80
2022/10/28 08:45:35;;;;;;;14.45;6.72;;;;;;;15.55;75.51;100501.00;1089042;46;20038;-82
2022/10/28 08:46:55;;;;;;;12.18;6.68;;;;;;;15.53;76.05;100514.63;1087735;54;20010;-80
2022/10/28 08:48:13;;;;;;;18.60;7.90;;;;;;;15.43;76.38;100533.63;1087585;54;20018;-81
2022/10/28 08:49:19;;;;;;;28.85;7.35;;;;;;;15.55;76.15;100550.31;1093744;46;20040;-82
2022/10/28 08:50:26;;;;;;;20.10;7.07;;;;;;;15.65;76.12;100557.41;1086695;54;20034;-78
2022/10/28 08:51:36;;;;;;;13.50;6.38;;;;;;;15.68;75.84;100566.00;1086799;54;20060;-79
2022/10/28 08:53:04;;;;;;;15.60;6.53;;;;;;;15.71;75.58;100571.06;1089510;39;20463;-80
2022/10/28 08:57:58;;;;;;;8.90;5.43;;;;;;;15.86;75.24;100544.34;1087148;54;20017;-78
2022/10/28 08:59:06;;;;;;;13.05;5.20;;;;;;;15.98;75.42;100533.22;1087055;54;20552;-79
2022/10/28 09:00:28;;;;;;;12.30;5.88;;;;;;;15.96;74.63;100530.72;1086635;46;20050;-79
2022/10/28 09:01:40;;;;;;;9.48;5.03;;;;;;;16.02;75.12;100521.94;1085827;54;20034;-80
2022/10/28 09:02:55;;;;;;;9.98;5.28;;;;;;;16.00;74.84;100520.44;1085083;54;20603;-80
2022/10/28 09:04:04;;;;;;;15.55;5.97;;;;;;;16.04;75.19;100525.31;1084100;54;20046;-80
2022/10/28 09:05:19;;;;;;;12.57;6.38;;;;;;;16.04;74.72;100525.31;1084354;54;20043;-81
2022/10/28 09:06:23;;;;;;;18.83;7.20;;;;;;;16.01;75.01;100527.50;1083981;54;20053;-79
2022/10/28 09:07:25;;;;;;;15.68;6.97;;;;;;;15.98;75.38;100531.34;1083765;54;20042;-80
2022/10/28 09:08:51;;;;;;;18.20;7.25;;;;;;;15.97;75.14;100529.66;1084615;54;20042;-79
2022/10/28 09:10:02;;;;;;;13.13;6.18;;;;;;;16.16;75.07;100527.66;1087021;54;20026;-79
2022/10/28 09:11:33;;;;;;;11.07;5.70;;;;;;;16.17;74.51;100529.34;1086521;54;20034;-82
2022/10/28 09:12:46;;;;;;;12.20;6.07;;;;;;;16.19;74.79;100543.50;1085037;54;20023;-79
2022/10/28 09:14:10;;;;;;;14.60;6.38;;;;;;;16.13;74.43;100546.88;1085670;54;20034;-79
2022/10/28 09:26:16;;;;;;;12.85;6.45;;;;;;;16.55;73.28;100458.63;1087341;54;20030;-78
2022/10/28 09:27:31;;;;;;;15.85;6.65;;;;;;;16.62;73.41;100448.81;1086368;31;20537;-78
2022/10/28 09:30:34;;;;;;;11.13;6.40;;;;;;;16.71;72.95;100452.31;1087058;54;20019;-80
2022/10/28 09:31:39;;;;;;;16.08;6.40;;;;;;;16.82;73.12;100457.31;1086228;47;20030;-80
2022/10/28 09:32:59;;;;;;;11.95;6.15;;;;;;;16.86;72.62;100444.31;1086625;46;20041;-78
2022/10/28 09:34:41;;;;;;;14.90;6.43;;;;;;;16.79;72.41;100457.69;1085600;54;20052;-76
2022/10/28 09:35:46;;;;;;;13.82;7.88;;;;;;;16.94;72.43;100450.53;1086693;54;20034;-80
2022/10/28 09:36:55;;;;;;;19.58;7.20;;;;;;;17.26;71.77;100454.09;1086157;54;20046;-77
2022/10/28 09:38:11;;;;;;;15.82;6.90;;;;;;;17.43;71.09;100471.00;1087301;39;20481;-80
2022/10/28 09:39:19;;;;;;;15.38;6.45;;;;;;;17.66;70.94;100459.38;1086997;47;20057;-79
2022/10/28 09:40:31;;;;;;;11.85;6.75;;;;;;;17.79;70.31;100464.16;1085033;54;20038;-81
2022/10/28 09:41:40;;;;;;;12.95;6.68;;;;;;;18.02;69.76;100469.56;1085740;54;20030;-80
2022/10/28 09:42:48;;;;;;;15.00;7.18;;;;;;;18.14;69.70;100482.63;1085992;54;20069;-82
2022/10/28 09:49:38;;;;;;;10.32;5.93;;;;;;;18.10;69.09;100506.53;1087411;47;20023;-81
2022/10/28 09:50:43;;;;;;;12.98;5.57;;;;;;;18.45;68.71;100506.00;1087416;54;20042;-81
2022/10/28 09:51:52;;;;;;;13.02;5.07;;;;;;;18.68;68.11;100511.34;1086719;54;20533;-82
2022/10/28 09:53:00;;;;;;;10.10;5.53;;;;;;;18.72;67.72;100515.34;1086264;54;20066;-80
2022/10/28 09:54:04;;;;;;;10.52;4.78;;;;;;;18.84;67.57;100513.84;1084134;54;20561;-77
2022/10/28 09:55:19;;;;;;;11.65;4.97;;;;;;;18.93;66.43;100508.34;1083392;54;20034;-78
2022/10/28 10:01:46;;;;;;;12.52;6.50;;;;;;;18.90;66.29;100492.44;1086597;54;20034;-80
2022/10/28 10:02:53;;;;;;;10.63;4.97;;;;;;;19.00;66.33;100490.31;1086313;54;20076;-80
2022/10/28 10:03:55;;;;;;;12.88;5.43;;;;;;;19.09;66.11;100489.19;1085140;54;20049;-81
2022/10/28 10:05:03;;;;;;;14.07;6.00;;;;;;;19.04;65.57;100498.91;1085264;54;20050;-80
2022/10/28 10:06:11;;;;;;;8.98;4.82;;;;;;;19.29;65.13;100512.97;1085581;54;20034;-81
2022/10/28 10:07:31;;;;;;;12.52;4.50;;;;;;;19.42;64.30;100502.28;1087359;47;20102;-80
2022/10/28 10:08:38;;;;;;;12.10;5.07;;;;;;;19.45;65.07;100503.75;1084775;54;20058;-80
2022/10/28 10:09:48;;;;;;;13.23;4.90;;;;;;;19.39;64.49;100490.97;1083150;54;20041;-81
2022/10/28 10:10:59;;;;;;;11.23;4.80;;;;;;;19.42;65.17;100491.44;1082983;54;20549;-79
2022/10/28 10:12:09;;;;;;;10.30;5.20;;;;;;;19.45;64.54;100485.63;1083315;54;20259;-81
2022/10/28 10:13:14;;;;;;;12.73;5.10;;;;;;;19.47;64.73;100499.00;1083301;54;20085;-79
2022/10/28 10:14:22;;;;;;;14.60;6.15;;;;;;;19.22;64.58;100515.63;1083636;54;20055;-79
2022/10/28 10:15:28;;;;;;;12.60;5.63;;;;;;;19.17;64.47;100528.88;1083524;54;20050;-78
2022/10/28 10:16:42;;;;;;;13.77;5.22;;;;;;;19.03;64.51;100533.28;1083602;54;20045;-80
2022/10/28 10:17:48;;;;;;;11.57;4.88;;;;;;;19.24;64.56;100532.50;1083358;54;20050;-78
2022/10/28 10:18:56;;;;;;;9.95;4.47;;;;;;;19.42;64.46;100525.81;1083394;54;20062;-81
2022/10/28 10:20:06;;;;;;;8.57;4.63;;;;;;;19.47;63.90;100509.84;1084546;54;20077;-77
2022/10/28 10:21:10;;;;;;;13.05;5.43;;;;;;;19.40;63.97;100495.38;1083958;54;20069;-77
2022/10/28 10:22:33;;;;;;;17.35;6.22;;;;;;;19.25;63.63;100479.97;1083659;54;20042;-79
2022/10/28 10:23:38;;;;;;;13.05;5.43;;;;;;;19.36;64.11;100475.09;1084926;47;20042;-79
2022/10/28 10:24:47;;;;;;;8.27;4.80;;;;;;;19.45;63.39;100480.22;1087633;54;20042;-82
2022/10/28 10:25:56;;;;;;;12.00;5.70;;;;;;;19.44;63.59;100497.50;1088512;47;20073;-83
2022/10/28 10:27:03;;;;;;;8.05;4.30;;;;;;;19.59;63.45;100499.31;1087323;54;20069;-78
2022/10/28 10:28:17;;;;;;;8.13;4.28;;;;;;;19.64;63.36;100494.16;1085653;54;20057;-78
2022/10/28 10:29:20;;;;;;;9.90;3.92;;;;;;;19.73;63.36;100495.72;1086897;31;20532;-78
2022/10/28 10:30:28;;;;;;;11.63;4.25;;;;;;;19.59;62.72;100486.63;1085554;47;20754;-78
2022/10/28 10:31:30;;;;;;;15.13;5.57;;;;;;;19.51;62.99;100475.03;1085961;46;20069;-79
2022/10/28 10:32:35;;;;;;;13.32;5.15;;;;;;;19.43;62.85;100459.72;1086376;54;20102;-79
2022/10/28 10:33:38;;;;;;;13.68;5.45;;;;;;;19.49;62.88;100467.94;1086735;54;20058;-78
2022/10/28 10:35:25;;;;;;;15.18;5.63;;;;;;;19.36;63.23;100478.66;1087358;54;20042;-76
2022/10/28 10:38:23;;;;;;;20.00;5.35;;;;;;;19.53;62.78;100489.25;1087042;54;20026;-77
2022/10/28 10:39:30;;;;;;;12.95;5.22;;;;;;;19.59;62.86;100478.47;1087699;47;20042;-76
2022/10/28 10:43:41;;;;;;;16.42;6.68;;;;;;;19.44;63.42;100462.28;1087378;54;20003;-77
2022/10/28 10:53:59;;;;;;;11.88;4.80;;;;;;;19.56;63.20;100465.28;1087867;54;20014;-79
2022/10/28 10:55:05;;;;;;;10.05;4.57;;;;;;;19.68;62.79;100441.19;1086641;54;20660;-79
2022/10/28 10:56:14;;;;;;;13.70;5.38;;;;;;;19.68;63.04;100438.50;1086533;54;20026;-78
2022/10/28 10:57:21;;;;;;;11.85;5.75;;;;;;;19.78;62.60;100436.28;1085990;54;20125;-78
2022/10/28 12:39:34;;;;;;;9.07;3.47;;;;;;;21.95;58.64;100402.44;1085457;54;20038;-79
2022/10/28 12:41:14;;;;;;;12.57;4.85;;;;;;;21.88;58.05;100393.44;1086731;54;20042;-81
2022/10/28 12:42:25;;;;;;;20.17;5.25;;;;;;;21.82;57.83;100383.41;1089626;46;20039;-80
2022/10/28 12:43:33;;;;;;;19.42;5.70;;;;;;;21.91;58.36;100378.56;1085673;54;20045;-76
2022/10/28 12:44:40;;;;;;;18.30;6.05;;;;;;;21.97;58.17;100378.56;1087291;54;20027;-76
2022/10/28 12:45:50;;;;;;;16.30;5.90;;;;;;;22.04;57.86;100372.25;1087706;46;20058;-76
2022/10/28 12:47:05;;;;;;;13.20;4.85;;;;;;;22.08;57.65;100384.41;1087206;54;20030;-78
2022/10/28 12:48:18;;;;;;;15.18;5.70;;;;;;;22.10;57.50;100382.31;1087259;54;20032;-78
2022/10/28 12:49:27;;;;;;;11.18;5.00;;;;;;;22.16;57.99;100383.31;1087254;54;20026;-77
2022/10/28 12:50:38;;;;;;;16.05;5.38;;;;;;;22.19;57.66;100386.47;1087226;54;20031;-77
2022/10/28 12:51:40;;;;;;;13.73;6.30;;;;;;;22.26;57.93;100378.25;1088500;46;20039;-77
2022/10/28 12:52:52;;;;;;;12.43;5.10;;;;;;;22.29;57.12;100381.41;1087270;54;20054;-77
2022/10/28 12:53:59;;;;;;;13.13;5.45;;;;;;;22.33;57.35;100380.97;1087278;54;20030;-77
2022/10/28 12:55:12;;;;;;;10.93;4.40;;;;;;;22.37;57.10;100382.22;1087301;46;20061;-76
2022/10/28 12:56:20;;;;;;;10.02;4.47;;;;;;;22.43;56.99;100378.66;1086967;54;20034;-77
2022/10/28 12:57:23;;;;;;;11.35;4.15;;;;;;;22.44;57.02;100377.63;1088978;46;20042;-79
2022/10/28 12:58:33;;;;;;;8.23;3.95;;;;;;;22.50;56.67;100376.75;1087298;54;20037;-77
2022/10/28 12:59:38;;;;;;;7.72;3.65;;;;;;;22.52;56.92;100371.94;1087209;54;20031;-77
2022/10/28 13:00:45;;;;;;;9.07;4.10;;;;;;;22.54;56.56;100375.28;1088247;46;20083;-77
2022/10/28 13:01:50;;;;;;;9.75;4.07;;;;;;;22.52;56.20;100371.94;1086903;54;20057;-77
2022/10/28 13:03:01;;;;;;;15.20;4.25;;;;;;;22.51;56.16;100372.97;1088061;46;20049;-77
2022/10/28 13:04:03;;;;;;;11.43;3.67;;;;;;;22.59;56.71;100374.63;1087629;46;20058;-76
2022/10/28 13:05:08;;;;;;;5.82;3.03;;;;;;;22.69;56.03;100376.88;1087178;54;20030;-77
2022/10/28 13:06:40;;;;;;;12.32;4.00;;;;;;;22.59;56.07;100370.00;1087705;46;20042;-77
2022/10/28 13:07:59;;;;;;;7.32;3.08;;;;;;;22.67;56.02;100379.00;1087227;54;20033;-79
2022/10/28 13:09:21;;;;;;;7.03;2.78;;;;;;;22.71;55.84;100377.50;1088885;46;20054;-75
2022/10/28 13:10:30;;;;;;;9.68;2.88;;;;;;;22.75;56.27;100368.69;1087931;46;20062;-77
2022/10/28 13:11:59;;;;;;;6.80;3.10;;;;;;;22.80;55.51;100370.75;1087251;54;20026;-77
2022/10/28 13:13:23;;;;;;;10.43;3.53;;;;;;;22.77;55.34;100367.63;1088481;46;20054;-79
2022/10/28 13:14:42;;;;;;;9.40;4.10;;;;;;;22.79;55.77;100360.06;1087927;46;20014;-76
2022/10/28 13:16:00;;;;;;;12.85;4.57;;;;;;;22.78;55.47;100361.94;1088241;46;20037;-77
2022/10/28 13:17:21;;;;;;;11.32;4.00;;;;;;;22.65;55.09;100364.75;1087568;47;20041;-79
2022/10/28 13:18:45;;;;;;;8.40;3.85;;;;;;;22.77;55.17;100367.63;1089171;46;20038;-76
2022/10/28 13:20:07;;;;;;;7.68;3.35;;;;;;;22.77;54.98;100365.72;1087212;54;20038;-76
2022/10/28 13:21:24;;;;;;;7.55;3.42;;;;;;;22.78;55.01;100372.03;1087780;46;20034;-77
2022/10/28 13:22:46;;;;;;;12.80;3.40;;;;;;;22.79;54.40;100362.81;1087162;54;20038;-77
2022/10/28 13:23:56;;;;;;;6.15;3.20;;;;;;;22.91;54.62;100358.31;1087532;46;20026;-77
2022/10/28 13:25:14;;;;;;;8.52;3.20;;;;;;;22.96;54.27;100354.94;1090932;39;20740;-77
2022/10/28 13:26:24;;;;;;;7.57;3.28;;;;;;;22.98;54.30;100345.50;1087033;54;20065;-78
2022/10/28 13:27:29;;;;;;;7.78;3.58;;;;;;;23.07;54.54;100354.22;1087610;46;20544;-78
2022/10/28 13:28:37;;;;;;;6.00;3.25;;;;;;;23.14;54.42;100352.31;1087209;54;20053;-78
2022/10/28 13:29:44;;;;;;;7.72;3.67;;;;;;;23.18;54.22;100350.84;1087256;54;20030;-77
2022/10/28 13:30:54;;;;;;;6.53;2.75;;;;;;;23.15;53.26;100353.13;1087667;47;20031;-78
2022/10/28 13:31:58;;;;;;;5.85;2.35;;;;;;;23.19;53.51;100346.22;1087088;54;20037;-77
2022/10/28 13:33:05;;;;;;;8.43;2.95;;;;;;;23.25;52.69;100350.78;1087289;54;20034;-79
2022/10/28 13:34:12;;;;;;;8.00;2.47;;;;;;;23.27;52.48;100343.22;1087382;47;20030;-78
2022/10/28 13:35:21;;;;;;;7.95;2.83;;;;;;;23.41;52.33;100343.09;1087752;46;20026;-80
2022/10/28 13:36:28;;;;;;;7.13;2.40;;;;;;;23.45;52.27;100350.63;1087190;54;20044;-78
2022/10/28 13:37:34;;;;;;;8.77;2.72;;;;;;;23.43;51.92;100358.19;1087291;54;20030;-77
2022/10/28 13:38:39;;;;;;;7.15;2.50;;;;;;;23.42;52.07;100351.09;1087731;54;20030;-77
2022/10/28 13:39:43;;;;;;;5.70;2.40;;;;;;;23.48;51.48;100355.63;1087485;54;20041;-78
2022/10/28 13:41:12;;;;;;;8.18;2.75;;;;;;;23.38;51.27;100360.75;1088420;46;20038;-77
2022/10/28 13:42:48;;;;;;;7.13;2.63;;;;;;;23.37;51.32;100353.63;1086925;54;20086;-77
2022/10/28 13:44:22;;;;;;;6.13;2.38;;;;;;;23.23;51.19;100362.97;1088301;46;20031;-76
2022/10/28 13:45:49;;;;;;;8.13;2.88;;;;;;;23.21;51.75;100355.84;1087398;47;20058;-77
2022/10/28 13:47:25;;;;;;;6.30;3.22;;;;;;;23.26;51.95;100357.91;1089273;46;20122;-77
2022/10/28 13:49:18;;;;;;;9.98;3.30;;;;;;;23.06;52.51;100364.31;1087286;54;20030;-78
2022/10/28 14:04:02;;;;;;;5.32;2.70;;;;;;;23.05;53.70;100362.63;1082928;54;20022;-79
2022/10/28 14:10:53;;;;;;;6.03;2.92;;;;;;;23.16;53.88;100373.91;1082668;54;20034;-80
2022/10/28 14:17:58;;;;;;;7.47;2.83;;;;;;;23.04;54.79;100365.59;1082761;54;20042;-79
2022/10/28 14:19:26;;;;;;;9.90;3.13;;;;;;;22.98;54.74;100374.63;1082572;54;20066;-79
2022/10/28 14:22:36;;;;;;;10.73;4.18;;;;;;;23.00;55.30;100370.63;1082754;54;20030;-82
2022/10/28 14:24:14;;;;;;;10.68;4.50;;;;;;;22.85;55.23;100372.81;1083421;39;20460;-79
2022/10/28 14:25:53;;;;;;;17.90;4.95;;;;;;;22.69;55.75;100379.59;1083479;54;20030;-80
2022/10/28 14:27:44;;;;;;;;;;;;;;;;;;;;;
2022/10/28 14:29:17;;;;;;;8.98;3.95;;;;;;;22.85;55.78;100362.78;1083478;54;20060;-81
2022/10/28 14:31:04;;;;;;;8.70;3.88;;;;;;;22.80;55.50;100368.03;1083855;54;20043;-80
2022/10/28 14:32:49;;;;;;;;;;;;;;;;;;;;;
2022/10/28 14:34:47;;;;;;;;;;;;;;;;;;;;;
2022/10/28 14:38:21;;;;;;;8.00;3.15;;;;;;;22.72;56.14;100379.19;1083451;54;20106;-79
2022/10/28 14:43:39;;;;;;;5.80;2.72;;;;;;;22.67;56.30;100366.22;1083261;54;20023;-79
2022/10/28 14:45:32;;;;;;;6.85;2.90;;;;;;;22.74;56.21;100377.91;1083252;54;20035;-79
2022/10/28 14:52:39;;;;;;;7.15;2.95;;;;;;;22.61;56.69;100366.22;1082927;54;20038;-79
2022/10/28 14:54:09;;;;;;;8.40;2.85;;;;;;;22.61;56.82;100358.91;1083386;54;20058;-79
2022/10/28 14:56:15;;;;;;;5.53;2.53;;;;;;;22.53;57.12;100370.06;1083767;39;20128;-79
2022/10/28 15:01:54;;;;;;;7.32;2.72;;;;;;;22.46;57.38;100359.19;1083381;54;20035;-80
2022/10/28 15:03:12;;;;;;;5.63;2.80;;;;;;;22.54;57.36;100367.09;1084063;54;20057;-79
2022/10/28 15:10:59;;;;;;;8.57;3.42;;;;;;;22.62;56.90;100359.72;1082884;54;20046;-80
2022/10/28 15:12:09;;;;;;;8.82;3.10;;;;;;;22.56;57.36;100354.13;1083373;46;20038;-79
2022/10/28 15:13:15;;;;;;;7.33;3.47;;;;;;;22.43;58.11;100357.72;1083420;54;20038;-79
2022/10/28 15:14:36;;;;;;;8.32;3.42;;;;;;;22.42;58.11;100355.22;1083303;54;20792;-79
2022/10/28 15:15:40;;;;;;;7.80;3.33;;;;;;;22.42;58.24;100352.47;1083403;54;20564;-79
2022/10/28 15:16:56;;;;;;;;;;;;;;;;;;;;;
2022/10/28 15:19:02;;;;;;;12.80;3.92;;;;;;;22.20;58.51;100360.06;1082649;54;20134;-79
2022/10/28 15:20:41;;;;;;;7.68;3.95;;;;;;;22.24;58.65;100359.44;1082932;54;20042;-79
2022/10/28 15:21:42;;;;;;;7.25;3.90;;;;;;;22.32;58.67;100352.06;1083806;46;20039;-78
2022/10/28 15:22:47;;;;;;;6.25;3.28;;;;;;;22.39;58.45;100342.84;1083478;54;20089;-80
2022/10/28 15:23:59;;;;;;;10.35;4.55;;;;;;;22.32;59.14;100349.34;1083721;54;20038;-78
2022/10/28 15:25:05;;;;;;;13.50;4.13;;;;;;;22.39;58.59;100340.13;1083438;54;20034;-80
2022/10/28 15:26:09;;;;;;;8.13;4.03;;;;;;;22.38;58.80;100341.16;1083552;54;20651;-78
2022/10/28 18:20:54;;;;;;;13.07;7.38;;;;;;;20.06;67.89;100440.91;923375;55;52225;-79
2022/10/28 18:21:58;;;;;;;14.25;8.38;;;;;;;20.04;68.20;100439.44;1083621;54;20042;-79
2022/10/28 18:23:01;;;;;;;15.20;7.88;;;;;;;20.00;68.21;100439.00;1084502;54;20030;-81
2022/10/28 18:24:07;;;;;;;11.57;7.47;;;;;;;19.92;68.43;100439.97;1084447;39;20455;-79
2022/10/28 18:25:12;;;;;;;12.48;7.20;;;;;;;19.91;68.50;100435.56;1083695;54;20123;-80
2022/10/28 18:26:15;;;;;;;14.38;7.93;;;;;;;19.87;68.47;100437.03;1083335;54;20544;-77
2022/10/28 18:27:19;;;;;;;12.68;7.78;;;;;;;19.85;68.60;100444.50;1083412;54;20045;-80
2022/10/28 18:28:22;;;;;;;13.07;8.18;;;;;;;19.82;68.88;100431.31;1083459;54;20580;-78
2022/10/28 18:29:27;;;;;;;11.40;7.85;;;;;;;19.76;68.69;100438.34;1083746;54;20640;-79
2022/10/28 18:30:31;;;;;;;11.43;7.50;;;;;;;19.75;68.75;100435.84;1083986;54;20034;-78
2022/10/28 18:31:36;;;;;;;10.95;7.20;;;;;;;19.75;69.13;100435.84;1083792;54;20038;-80
2022/10/28 18:32:40;;;;;;;12.27;8.32;;;;;;;19.66;69.07;100437.84;1083540;54;20043;-80
2022/10/28 18:33:43;;;;;;;15.60;9.15;;;;;;;19.52;69.87;100447.72;1083606;54;20046;-79
2022/10/28 18:34:47;;;;;;;13.13;8.98;;;;;;;19.48;70.13;100441.84;1083522;54;20058;-78
2022/10/28 18:35:56;;;;;;;14.85;8.63;;;;;;;19.51;69.68;100445.22;1083328;54;20031;-78
2022/10/28 18:37:02;;;;;;;12.55;7.70;;;;;;;19.52;69.82;100441.47;1083583;54;20038;-79
2022/10/28 18:38:04;;;;;;;13.10;7.72;;;;;;;19.51;69.68;100445.22;1083755;54;20145;-79
2022/10/28 18:39:12;;;;;;;13.00;7.32;;;;;;;19.48;69.83;100447.28;1083681;54;20126;-80
2022/10/28 18:40:18;;;;;;;9.65;6.93;;;;;;;19.44;70.24;100448.72;1083941;54;20030;-81
2022/10/28 18:41:25;;;;;;;10.80;7.57;;;;;;;19.40;70.23;100449.28;1083971;54;20046;-79
2022/10/28 18:42:26;;;;;;;10.65;7.53;;;;;;;19.38;70.39;100452.19;1085415;39;20398;-78
2022/10/28 19:16:11;;;;;;;10.95;7.95;;;;;;;18.31;74.60;100462.50;1086785;54;20540;-78
2022/10/28 19:17:15;;;;;;;11.55;7.20;;;;;;;18.37;74.24;100458.22;1086830;47;20026;-79
2022/10/28 19:18:17;;;;;;;12.05;8.07;;;;;;;18.45;73.97;100452.72;1085994;54;20042;-79
2022/10/28 19:19:21;;;;;;;10.13;6.32;;;;;;;18.54;73.77;100462.41;1085269;54;20050;-78
2022/10/28 19:20:38;;;;;;;13.13;6.90;;;;;;;18.50;73.58;100460.28;1084821;54;20102;-79
2022/10/28 19:25:01;;;;;;;15.02;8.63;;;;;;;18.46;73.99;100459.81;1085024;54;20034;-76
2022/10/28 19:28:42;;;;;;;9.98;6.75;;;;;;;18.39;74.15;100470.53;1084658;54;20545;-78
2022/10/28 19:29:46;;;;;;;13.93;7.72;;;;;;;18.39;74.59;100464.28;1084639;54;20027;-77
2022/10/28 19:31:14;;;;;;;19.25;7.78;;;;;;;18.35;74.76;100458.41;1084751;54;20023;-78
2022/10/28 19:32:16;;;;;;;14.35;7.95;;;;;;;18.39;74.35;100469.69;1085045;54;20058;-79
2022/10/28 19:33:32;;;;;;;13.45;8.02;;;;;;;18.39;74.78;100469.69;1085131;54;20090;-79
2022/10/28 19:34:36;;;;;;;13.40;7.55;;;;;;;18.41;74.48;100467.66;1084973;54;20026;-79
2022/10/28 19:35:43;;;;;;;13.40;7.47;;;;;;;18.44;74.31;100469.97;1085087;47;20561;-78
2022/10/28 19:36:58;;;;;;;10.98;7.28;;;;;;;18.43;74.68;100467.47;1085126;54;20034;-78
2022/10/28 19:37:59;;;;;;;12.15;8.35;;;;;;;18.43;74.65;100465.59;1084980;47;20038;-78
2022/10/28 19:39:13;;;;;;;13.95;7.47;;;;;;;18.43;74.70;100468.28;1085114;54;20030;-79
2022/10/28 19:40:14;;;;;;;15.73;8.35;;;;;;;18.46;74.65;100473.34;1084855;54;20042;-79